ソフィア の空港の天気 - METARとTAF

ソフィア空港 ( LBSF / SOF ) - ブルガリア ソフィア
飛行場実況気象(Metar)
観測時間04/24 18:30 EEST (04/24 15:30 UTC)
風向・風速南東 7m/s
視程10km以上
天気現象
なし
気温19℃
湿度46%
気圧1022hPa
METARLBSF 241530Z 13014KT CAVOK 19/07 Q1022 NOSIG
過去の天気等 Google飛行場航空写真 Wunderground天気予報

過去48時間のMETAR

飛行場予報(TAF)
発表時間: 4/24 14:00 EEST (4/24 11:00 UTC)
予報対象時間: 24日15時 EEST ~ 25日15時 EEST
風向・風速東 6m/s
視程10km以上
なし
24日22時 EEST ~ 24日24時 EEST に徐々に
風向・風速不定 2m/s
25日4時 EEST ~ 25日8時 EEST に一時的に
視程3000m
天気現象もや
25日12時 EEST ~ 25日14時 EEST に徐々に
風向・風速東 5m/s
TAF LBSF 241100Z 2412/2512 09012KT CAVOK
BECMG 2419/2421 VRB04KT
TEMPO 2501/2505 3000 BR
BECMG 2509/2511 10010KT